KHEQ

Holyoke Airport

Holyoke, Colorado, USA
METAR KHEQ 201515Z AUTO 32007G14KT 10SM CLR M14/M19 A3004 RMK AO2
Observed Flight Rules
Feb-20 @ 15:15 UTC (5 hours ago) Visual Flight Rules
Wind Visibility Clouds
320° at 7 knots
 Gusting to 14 knots
10 miles
  • Clear skies
Temperatures Readings
Current -14°C / 7°F
Dewpoint -19°C / -2°F
Humidity 66%
Altimeter 30.04" Hg
Pressure 1017 hPa
Elevation 1137
METAR KHEQ 201515Z AUTO 32007G14KT 10SM CLR M14/M19 A3004 RMK AO2
Observed Flight Rules
Feb-20 @ 15:15 UTC
(5 hours ago)
VFR
Wind Visibility
320° at 7 knots
 Gusting to 14 knots
10 miles
Clouds
  • Clear skies
Temperature Dewpoint
-14°C / 7°F -19°C / -2°F
Humidity Altimeter Pressure
66% 30.04" Hg 1017 hPa